sensor_id;sensor_type;location;lat;lon;timestamp;pressure;altitude;pressure_sealevel;temperature;humidity
21449;BME280;10885;52.830;13.788;2022-10-17T04:27:06;101771.44;;;12.44;70.17
21449;BME280;10885;52.830;13.788;2022-10-17T04:32:31;101772.13;;;12.42;70.78
21449;BME280;10885;52.830;13.788;2022-10-17T04:38:01;101769.34;;;12.39;70.52
21449;BME280;10885;52.830;13.788;2022-10-17T04:43:22;101771.91;;;12.39;70.77
21449;BME280;10885;52.830;13.788;2022-10-17T04:48:44;101779.63;;;12.39;70.66
21449;BME280;10885;52.830;13.788;2022-10-17T04:54:05;101770.91;;;12.37;71.08
21449;BME280;10885;52.830;13.788;2022-10-17T04:59:27;101770.13;;;12.38;71.01
21449;BME280;10885;52.830;13.788;2022-10-17T05:05:04;101776.16;;;12.38;70.92
21449;BME280;10885;52.830;13.788;2022-10-17T05:10:25;101776.94;;;12.37;70.98
21449;BME280;10885;52.830;13.788;2022-10-17T05:15:47;101771.91;;;12.39;70.77
21449;BME280;10885;52.830;13.788;2022-10-17T05:21:08;101774.59;;;12.40;70.76
21449;BME280;10885;52.830;13.788;2022-10-17T05:26:31;101769.22;;;12.37;70.96
21449;BME280;10885;52.830;13.788;2022-10-17T05:31:52;101770.22;;;12.39;70.86
21449;BME280;10885;52.830;13.788;2022-10-17T05:37:13;101770.91;;;12.37;70.72
21449;BME280;10885;52.830;13.788;2022-10-17T05:42:38;101777.94;;;12.39;70.90
21449;BME280;10885;52.830;13.788;2022-10-17T05:48:05;101768.06;;;12.45;70.87
21449;BME280;10885;52.830;13.788;2022-10-17T05:53:29;101773.13;;;12.44;70.81
21449;BME280;10885;52.830;13.788;2022-10-17T05:58:54;101778.56;;;12.48;70.85
21449;BME280;10885;52.830;13.788;2022-10-17T06:04:46;101783.16;;;12.52;70.76
21449;BME280;10885;52.830;13.788;2022-10-17T06:10:11;101790.38;;;12.58;70.70
21449;BME280;10885;52.830;13.788;2022-10-17T06:15:35;101798.31;;;12.61;70.82
21449;BME280;10885;52.830;13.788;2022-10-17T06:21:10;101793.78;;;12.70;70.78
21449;BME280;10885;52.830;13.788;2022-10-17T06:26:37;101806.31;;;12.78;70.48
21449;BME280;10885;52.830;13.788;2022-10-17T06:31:59;101824.56;;;12.94;70.49
21449;BME280;10885;52.830;13.788;2022-10-17T06:37:21;101814.09;;;13.04;70.49
21449;BME280;10885;52.830;13.788;2022-10-17T06:42:42;101816.94;;;13.09;70.33
21449;BME280;10885;52.830;13.788;2022-10-17T06:48:17;101828.56;;;13.16;70.25
21449;BME280;10885;52.830;13.788;2022-10-17T06:54:01;101833.66;;;13.27;70.25
21449;BME280;10885;52.830;13.788;2022-10-17T06:59:40;101831.81;;;13.38;69.83
21449;BME280;10885;52.830;13.788;2022-10-17T07:05:05;101838.56;;;13.63;69.60
21449;BME280;10885;52.830;13.788;2022-10-17T07:10:27;101837.56;;;13.87;69.92
21449;BME280;10885;52.830;13.788;2022-10-17T07:15:48;101826.31;;;14.27;69.29
21449;BME280;10885;52.830;13.788;2022-10-17T07:21:10;101828.88;;;14.68;68.94
21449;BME280;10885;52.830;13.788;2022-10-17T07:26:33;101820.25;;;14.98;68.75
21449;BME280;10885;52.830;13.788;2022-10-17T07:31:54;101819.22;;;15.09;68.14
21449;BME280;10885;52.830;13.788;2022-10-17T07:37:16;101830.09;;;15.48;68.22
21449;BME280;10885;52.830;13.788;2022-10-17T07:42:43;101829.44;;;15.82;67.61
21449;BME280;10885;52.830;13.788;2022-10-17T07:48:05;101828.09;;;15.88;67.48
21449;BME280;10885;52.830;13.788;2022-10-17T07:53:26;101827.84;;;16.32;67.34
21449;BME280;10885;52.830;13.788;2022-10-17T07:58:47;101823.47;;;16.80;66.77
21449;BME280;10885;52.830;13.788;2022-10-17T08:04:08;101829.13;;;17.05;66.25
21449;BME280;10885;52.830;13.788;2022-10-17T08:09:29;101844.50;;;17.55;66.09
21449;BME280;10885;52.830;13.788;2022-10-17T08:14:49;101835.38;;;17.97;65.76
21449;BME280;10885;52.830;13.788;2022-10-17T08:20:11;101829.78;;;18.64;65.24
21449;BME280;10885;52.830;13.788;2022-10-17T08:25:31;101832.19;;;19.62;65.03
21449;BME280;10885;52.830;13.788;2022-10-17T08:31:01;101833.91;;;20.52;63.75
21449;BME280;10885;52.830;13.788;2022-10-17T08:36:22;101836.78;;;22.16;65.87
21449;BME280;10885;52.830;13.788;2022-10-17T08:47:15;101838.06;;;35.39;43.01
21449;BME280;10885;52.830;13.788;2022-10-17T08:52:47;101838.56;;;37.80;36.09
21449;BME280;10885;52.830;13.788;2022-10-17T08:58:13;101841.19;;;38.06;32.82
21449;BME280;10885;52.830;13.788;2022-10-17T09:21:24;101833.47;;;28.70;43.19
21449;BME280;10885;52.830;13.788;2022-10-17T09:26:49;101830.22;;;27.47;45.57
21449;BME280;10885;52.830;13.788;2022-10-17T09:32:15;101841.38;;;27.19;45.39
21449;BME280;10885;52.830;13.788;2022-10-17T09:37:37;101846.59;;;27.12;45.05
21449;BME280;10885;52.830;13.788;2022-10-17T09:42:59;101830.78;;;25.67;47.14
21449;BME280;10885;52.830;13.788;2022-10-17T09:48:32;101817.63;;;24.65;49.06
21449;BME280;10885;52.830;13.788;2022-10-17T09:53:59;101818.59;;;24.26;50.08
21449;BME280;10885;52.830;13.788;2022-10-17T10:00:22;101813.94;;;24.12;50.53
21449;BME280;10885;52.830;13.788;2022-10-17T10:05:19;101806.31;;;23.82;51.48
21449;BME280;10885;52.830;13.788;2022-10-17T10:10:42;101809.91;;;23.87;52.40
21449;BME280;10885;52.830;13.788;2022-10-17T10:16:30;101810.84;;;23.91;52.15
21449;BME280;10885;52.830;13.788;2022-10-17T10:21:56;101804.75;;;23.90;52.57
21449;BME280;10885;52.830;13.788;2022-10-17T10:27:26;101798.63;;;23.90;52.58
21449;BME280;10885;52.830;13.788;2022-10-17T10:32:48;101797.50;;;24.19;52.87
21449;BME280;10885;52.830;13.788;2022-10-17T10:38:14;101808.53;;;24.05;52.96
21449;BME280;10885;52.830;13.788;2022-10-17T10:43:42;101808.50;;;24.03;52.85
21449;BME280;10885;52.830;13.788;2022-10-17T10:49:03;101809.50;;;24.08;52.87
21449;BME280;10885;52.830;13.788;2022-10-17T10:54:58;101812.59;;;24.33;52.76
21449;BME280;10885;52.830;13.788;2022-10-17T11:00:24;101794.38;;;24.39;52.88
21449;BME280;10885;52.830;13.788;2022-10-17T11:05:52;101792.09;;;24.54;52.37
21449;BME280;10885;52.830;13.788;2022-10-17T11:11:30;101779.81;;;24.50;52.30
21449;BME280;10885;52.830;13.788;2022-10-17T11:22:42;101794.25;;;24.77;53.08
21449;BME280;10885;52.830;13.788;2022-10-17T11:28:12;101788.91;;;24.71;52.60
21449;BME280;10885;52.830;13.788;2022-10-17T11:33:48;101783.38;;;24.54;52.59
21449;BME280;10885;52.830;13.788;2022-10-17T11:39:26;101769.25;;;24.47;52.29
21449;BME280;10885;52.830;13.788;2022-10-17T11:44:52;101759.56;;;24.45;53.15
21449;BME280;10885;52.830;13.788;2022-10-17T11:50:33;101764.16;;;24.55;52.51
21449;BME280;10885;52.830;13.788;2022-10-17T11:56:21;101758.28;;;24.68;53.08
21449;BME280;10885;52.830;13.788;2022-10-17T12:02:00;101753.16;;;24.74;53.23
21449;BME280;10885;52.830;13.788;2022-10-17T12:07:37;101731.91;;;24.57;52.90
21449;BME280;10885;52.830;13.788;2022-10-17T12:24:42;101737.91;;;24.52;53.60
21449;BME280;10885;52.830;13.788;2022-10-17T12:35:27;101722.00;;;24.94;54.43
21449;BME280;10885;52.830;13.788;2022-10-17T12:40:55;101728.44;;;25.71;53.97
21449;BME280;10885;52.830;13.788;2022-10-17T13:03:15;101710.81;;;26.34;50.32
21449;BME280;10885;52.830;13.788;2022-10-17T13:08:43;101711.63;;;25.57;50.53
21449;BME280;10885;52.830;13.788;2022-10-17T13:14:11;101699.69;;;25.19;50.49
21449;BME280;10885;52.830;13.788;2022-10-17T13:19:43;101706.09;;;25.38;51.35
21449;BME280;10885;52.830;13.788;2022-10-17T13:25:14;101691.88;;;25.23;51.62
21449;BME280;10885;52.830;13.788;2022-10-17T13:30:35;101683.63;;;24.98;51.78
21449;BME280;10885;52.830;13.788;2022-10-17T13:35:56;101686.06;;;24.89;51.79
21449;BME280;10885;52.830;13.788;2022-10-17T13:41:27;101686.91;;;24.86;52.01
21449;BME280;10885;52.830;13.788;2022-10-17T13:46:57;101682.28;;;24.70;52.34
21449;BME280;10885;52.830;13.788;2022-10-17T13:52:20;101673.56;;;24.71;52.39
21449;BME280;10885;52.830;13.788;2022-10-17T13:57:41;101677.69;;;24.56;52.36
21449;BME280;10885;52.830;13.788;2022-10-17T14:03:03;101672.00;;;24.32;53.08
21449;BME280;10885;52.830;13.788;2022-10-17T14:08:24;101675.91;;;24.08;53.14
21449;BME280;10885;52.830;13.788;2022-10-17T14:13:48;101670.34;;;23.90;53.56
21449;BME280;10885;52.830;13.788;2022-10-17T14:19:31;101689.38;;;23.82;53.58
21449;BME280;10885;52.830;13.788;2022-10-17T14:24:53;101683.03;;;23.73;53.88
21449;BME280;10885;52.830;13.788;2022-10-17T14:30:41;101694.91;;;23.57;54.14
21449;BME280;10885;52.830;13.788;2022-10-17T14:36:19;101699.75;;;23.38;54.57
21449;BME280;10885;52.830;13.788;2022-10-17T14:41:43;101700.44;;;23.31;54.73
21449;BME280;10885;52.830;13.788;2022-10-17T14:47:06;101708.06;;;23.20;55.29
21449;BME280;10885;52.830;13.788;2022-10-17T14:58:27;101715.59;;;22.73;55.74
21449;BME280;10885;52.830;13.788;2022-10-17T15:03:48;101707.66;;;22.69;55.80
21449;BME280;10885;52.830;13.788;2022-10-17T15:09:10;101709.78;;;22.50;56.00
21449;BME280;10885;52.830;13.788;2022-10-17T15:14:31;101706.59;;;22.29;56.53
21449;BME280;10885;52.830;13.788;2022-10-17T15:19:52;101709.66;;;22.15;56.62
21449;BME280;10885;52.830;13.788;2022-10-17T15:25:14;101727.66;;;22.04;57.05
21449;BME280;10885;52.830;13.788;2022-10-17T15:30:35;101725.59;;;21.93;57.25
21449;BME280;10885;52.830;13.788;2022-10-17T15:35:56;101734.81;;;21.81;57.50
21449;BME280;10885;52.830;13.788;2022-10-17T15:41:24;101733.53;;;21.67;57.55
21449;BME280;10885;52.830;13.788;2022-10-17T15:46:45;101734.72;;;21.50;57.82
21449;BME280;10885;52.830;13.788;2022-10-17T15:52:07;101736.97;;;21.39;58.07
21449;BME280;10885;52.830;13.788;2022-10-17T15:57:32;101738.25;;;21.24;58.41
21449;BME280;10885;52.830;13.788;2022-10-17T16:02:53;101748.34;;;21.14;58.55
21449;BME280;10885;52.830;13.788;2022-10-17T16:08:14;101741.84;;;21.01;58.86
21449;BME280;10885;52.830;13.788;2022-10-17T16:13:35;101749.28;;;20.90;58.80
21449;BME280;10885;52.830;13.788;2022-10-17T16:18:57;101744.59;;;20.80;59.19
21449;BME280;10885;52.830;13.788;2022-10-17T16:24:18;101747.75;;;20.70;59.13
21449;BME280;10885;52.830;13.788;2022-10-17T16:29:39;101748.16;;;20.58;59.32
21449;BME280;10885;52.830;13.788;2022-10-17T16:35:00;101749.66;;;20.51;59.59
21449;BME280;10885;52.830;13.788;2022-10-17T16:40:21;101753.69;;;20.43;59.50
21449;BME280;10885;52.830;13.788;2022-10-17T16:45:42;101759.41;;;20.33;60.04
21449;BME280;10885;52.830;13.788;2022-10-17T16:51:03;101761.72;;;20.23;59.80
21449;BME280;10885;52.830;13.788;2022-10-17T16:56:24;101758.81;;;20.16;60.21
21449;BME280;10885;52.830;13.788;2022-10-17T17:01:49;101766.41;;;20.10;60.31
21449;BME280;10885;52.830;13.788;2022-10-17T17:07:10;101765.16;;;20.00;60.33
21449;BME280;10885;52.830;13.788;2022-10-17T17:12:35;101762.28;;;19.92;60.61
21449;BME280;10885;52.830;13.788;2022-10-17T17:17:56;101762.09;;;19.88;60.76
21449;BME280;10885;52.830;13.788;2022-10-17T17:23:22;101767.06;;;19.81;60.82
21449;BME280;10885;52.830;13.788;2022-10-17T17:28:43;101765.16;;;19.77;61.00
21449;BME280;10885;52.830;13.788;2022-10-17T17:34:04;101760.47;;;19.68;61.06
21449;BME280;10885;52.830;13.788;2022-10-17T17:39:25;101768.84;;;19.61;61.08
21449;BME280;10885;52.830;13.788;2022-10-17T17:44:47;101776.47;;;19.57;61.40
21449;BME280;10885;52.830;13.788;2022-10-17T17:50:09;101777.13;;;19.51;61.47
21449;BME280;10885;52.830;13.788;2022-10-17T17:55:29;101778.47;;;19.41;61.48
21449;BME280;10885;52.830;13.788;2022-10-17T18:00:50;101789.50;;;19.36;61.47
21449;BME280;10885;52.830;13.788;2022-10-17T18:06:12;101790.91;;;19.27;61.87
21449;BME280;10885;52.830;13.788;2022-10-17T18:11:33;101807.88;;;19.19;61.83
21449;BME280;10885;52.830;13.788;2022-10-17T18:16:55;101804.84;;;19.08;62.11
21449;BME280;10885;52.830;13.788;2022-10-17T18:22:15;101818.06;;;18.94;61.94
21449;BME280;10885;52.830;13.788;2022-10-17T18:27:37;101825.34;;;18.81;62.52
21449;BME280;10885;52.830;13.788;2022-10-17T18:32:57;101829.28;;;18.73;62.45
21449;BME280;10885;52.830;13.788;2022-10-17T18:38:18;101849.53;;;18.61;62.80
21449;BME280;10885;52.830;13.788;2022-10-17T18:43:41;101840.69;;;18.57;62.84
21449;BME280;10885;52.830;13.788;2022-10-17T18:49:02;101837.06;;;18.54;62.85
21449;BME280;10885;52.830;13.788;2022-10-17T18:54:23;101834.13;;;18.46;63.07
21449;BME280;10885;52.830;13.788;2022-10-17T18:59:44;101839.66;;;18.34;63.36
21449;BME280;10885;52.830;13.788;2022-10-17T19:05:05;101842.19;;;18.33;63.26
21449;BME280;10885;52.830;13.788;2022-10-17T19:10:26;101847.13;;;18.26;63.50
21449;BME280;10885;52.830;13.788;2022-10-17T19:15:47;101843.31;;;18.20;63.58
21449;BME280;10885;52.830;13.788;2022-10-17T19:21:10;101853.63;;;18.18;63.72
21449;BME280;10885;52.830;13.788;2022-10-17T19:26:33;101853.50;;;18.15;63.64
21449;BME280;10885;52.830;13.788;2022-10-17T19:31:54;101862.25;;;18.17;63.77
21449;BME280;10885;52.830;13.788;2022-10-17T19:37:20;101856.09;;;18.15;63.67
21449;BME280;10885;52.830;13.788;2022-10-17T19:42:41;101866.19;;;18.09;63.74
21449;BME280;10885;52.830;13.788;2022-10-17T19:48:02;101866.88;;;18.05;63.84
21449;BME280;10885;52.830;13.788;2022-10-17T19:53:23;101863.06;;;17.98;63.87
21449;BME280;10885;52.830;13.788;2022-10-17T19:58:46;101872.34;;;17.93;64.17
21449;BME280;10885;52.830;13.788;2022-10-17T20:04:08;101888.34;;;17.84;64.08
21449;BME280;10885;52.830;13.788;2022-10-17T20:09:30;101884.63;;;17.79;64.33
21449;BME280;10885;52.830;13.788;2022-10-17T20:14:51;101889.34;;;17.70;64.45
21449;BME280;10885;52.830;13.788;2022-10-17T20:20:12;101889.81;;;17.61;64.54
21449;BME280;10885;52.830;13.788;2022-10-17T20:25:33;101896.53;;;17.58;64.46
21449;BME280;10885;52.830;13.788;2022-10-17T20:30:57;101893.94;;;17.58;64.75
21449;BME280;10885;52.830;13.788;2022-10-17T20:36:18;101904.38;;;17.59;64.41
21449;BME280;10885;52.830;13.788;2022-10-17T20:41:43;101896.69;;;17.61;64.77
21449;BME280;10885;52.830;13.788;2022-10-17T20:47:04;101903.50;;;17.59;64.82
21449;BME280;10885;52.830;13.788;2022-10-17T20:52:35;101911.69;;;17.50;64.96
21449;BME280;10885;52.830;13.788;2022-10-17T20:57:57;101924.16;;;17.57;65.05
21449;BME280;10885;52.830;13.788;2022-10-17T21:03:18;101924.09;;;17.56;64.99
21449;BME280;10885;52.830;13.788;2022-10-17T21:08:39;101924.81;;;17.53;64.97
21449;BME280;10885;52.830;13.788;2022-10-17T21:14:03;101920.88;;;17.43;64.90
21449;BME280;10885;52.830;13.788;2022-10-17T21:19:25;101928.41;;;17.39;65.14
21449;BME280;10885;52.830;13.788;2022-10-17T21:24:46;101928.75;;;17.28;65.24
21449;BME280;10885;52.830;13.788;2022-10-17T21:30:07;101935.22;;;17.20;65.40
21449;BME280;10885;52.830;13.788;2022-10-17T21:35:28;101943.66;;;17.16;65.56
21449;BME280;10885;52.830;13.788;2022-10-17T21:40:49;101938.59;;;17.01;65.67
21449;BME280;10885;52.830;13.788;2022-10-17T21:46:16;101948.78;;;16.98;65.81
21449;BME280;10885;52.830;13.788;2022-10-17T21:51:38;101953.22;;;17.01;65.82
21449;BME280;10885;52.830;13.788;2022-10-17T21:56:59;101960.19;;;17.02;65.89
